Menahga, Minnesota
Current Conditions -  °F | °C
As of 8:53 AM on Thursday 23 Oct 2014 (Local Time) from KPKD Reporting Station
Haze Haze  
Wind Chill: 46°   Ceiling: 300
Heat Index: 48°   Visibility: 6mi
Dew Point: 48°   Wind: 5mph
Humidity: 100%   Direction: 230°SW
Pressure: 29.94"   Gusts: NA
Location:  46.75°N, 95.1°W
Report Text: KPKD 231353Z AUTO 23004KT 6SM BR OVC003 09/09 A2994 RMK AO2 SLP145 T00890089 TSNO
Loading
Personal Weather Stations






























Interactive Weather Map
Tropical Storm Tracking
New forecast layout! Learn more

10-Day Weather Forecast

Advertisements
Track Severe Weather on mobile